sensor_id;sensor_type;location;lat;lon;timestamp;P1;durP1;ratioP1;P2;durP2;ratioP2
2912;SDS011;1466;48.778;9.166;2023-04-21T00:00:32;30.27;;;14.77;;
2912;SDS011;1466;48.778;9.166;2023-04-21T00:02:58;50.63;;;18.67;;
2912;SDS011;1466;48.778;9.166;2023-04-21T00:05:23;33.30;;;15.20;;
2912;SDS011;1466;48.778;9.166;2023-04-21T00:07:49;29.40;;;13.47;;
2912;SDS011;1466;48.778;9.166;2023-04-21T00:10:15;37.77;;;17.30;;
2912;SDS011;1466;48.778;9.166;2023-04-21T00:12:40;37.83;;;16.40;;
2912;SDS011;1466;48.778;9.166;2023-04-21T00:15:06;33.73;;;15.30;;
2912;SDS011;1466;48.778;9.166;2023-04-21T00:17:32;36.72;;;14.82;;
2912;SDS011;1466;48.778;9.166;2023-04-21T00:19:58;38.70;;;16.90;;
2912;SDS011;1466;48.778;9.166;2023-04-21T00:22:23;30.07;;;14.00;;
2912;SDS011;1466;48.778;9.166;2023-04-21T00:24:49;34.17;;;15.87;;
2912;SDS011;1466;48.778;9.166;2023-04-21T00:27:14;33.97;;;16.67;;
2912;SDS011;1466;48.778;9.166;2023-04-21T00:29:40;43.27;;;16.23;;
2912;SDS011;1466;48.778;9.166;2023-04-21T00:32:06;40.53;;;17.30;;
2912;SDS011;1466;48.778;9.166;2023-04-21T00:34:34;41.83;;;16.85;;
2912;SDS011;1466;48.778;9.166;2023-04-21T00:37:00;34.75;;;16.25;;
2912;SDS011;1466;48.778;9.166;2023-04-21T00:39:25;39.53;;;16.50;;
2912;SDS011;1466;48.778;9.166;2023-04-21T00:41:51;32.90;;;16.50;;
2912;SDS011;1466;48.778;9.166;2023-04-21T00:44:16;36.23;;;17.63;;
2912;SDS011;1466;48.778;9.166;2023-04-21T00:46:42;40.97;;;18.73;;
2912;SDS011;1466;48.778;9.166;2023-04-21T00:49:07;36.47;;;16.13;;
2912;SDS011;1466;48.778;9.166;2023-04-21T00:51:34;32.63;;;15.83;;
2912;SDS011;1466;48.778;9.166;2023-04-21T00:54:03;35.28;;;17.42;;
2912;SDS011;1466;48.778;9.166;2023-04-21T00:56:31;37.60;;;16.88;;
2912;SDS011;1466;48.778;9.166;2023-04-21T00:58:58;45.17;;;18.90;;
2912;SDS011;1466;48.778;9.166;2023-04-21T01:01:24;32.95;;;16.42;;
2912;SDS011;1466;48.778;9.166;2023-04-21T01:03:51;39.80;;;17.38;;
2912;SDS011;1466;48.778;9.166;2023-04-21T01:06:17;36.13;;;16.30;;
2912;SDS011;1466;48.778;9.166;2023-04-21T01:08:46;36.05;;;17.05;;
2912;SDS011;1466;48.778;9.166;2023-04-21T01:11:12;35.90;;;16.00;;
2912;SDS011;1466;48.778;9.166;2023-04-21T01:13:38;37.33;;;16.77;;
2912;SDS011;1466;48.778;9.166;2023-04-21T01:16:05;34.92;;;16.80;;
2912;SDS011;1466;48.778;9.166;2023-04-21T01:18:32;31.95;;;15.55;;
2912;SDS011;1466;48.778;9.166;2023-04-21T01:20:58;34.70;;;15.82;;
2912;SDS011;1466;48.778;9.166;2023-04-21T01:23:23;29.37;;;14.60;;
2912;SDS011;1466;48.778;9.166;2023-04-21T01:25:50;28.90;;;14.77;;
2912;SDS011;1466;48.778;9.166;2023-04-21T01:28:23;32.15;;;15.60;;
2912;SDS011;1466;48.778;9.166;2023-04-21T01:30:49;37.72;;;16.10;;
2912;SDS011;1466;48.778;9.166;2023-04-21T01:33:16;31.30;;;14.73;;
2912;SDS011;1466;48.778;9.166;2023-04-21T01:35:43;29.90;;;16.77;;
2912;SDS011;1466;48.778;9.166;2023-04-21T01:38:09;32.90;;;15.27;;
2912;SDS011;1466;48.778;9.166;2023-04-21T01:40:35;34.60;;;14.47;;
2912;SDS011;1466;48.778;9.166;2023-04-21T01:43:02;37.60;;;14.75;;
2912;SDS011;1466;48.778;9.166;2023-04-21T01:45:28;38.33;;;14.63;;
2912;SDS011;1466;48.778;9.166;2023-04-21T01:47:54;30.98;;;13.75;;
2912;SDS011;1466;48.778;9.166;2023-04-21T01:50:20;30.07;;;14.10;;
2912;SDS011;1466;48.778;9.166;2023-04-21T01:52:46;33.43;;;14.20;;
2912;SDS011;1466;48.778;9.166;2023-04-21T01:55:11;67.83;;;19.57;;
2912;SDS011;1466;48.778;9.166;2023-04-21T01:57:37;33.53;;;14.30;;
2912;SDS011;1466;48.778;9.166;2023-04-21T02:00:03;30.20;;;13.57;;
2912;SDS011;1466;48.778;9.166;2023-04-21T02:02:29;31.50;;;13.63;;
2912;SDS011;1466;48.778;9.166;2023-04-21T02:04:55;28.10;;;13.80;;
2912;SDS011;1466;48.778;9.166;2023-04-21T02:07:20;29.57;;;13.33;;
2912;SDS011;1466;48.778;9.166;2023-04-21T02:09:46;36.83;;;16.00;;
2912;SDS011;1466;48.778;9.166;2023-04-21T02:12:11;40.47;;;14.90;;
2912;SDS011;1466;48.778;9.166;2023-04-21T02:14:37;37.27;;;15.37;;
2912;SDS011;1466;48.778;9.166;2023-04-21T02:17:03;38.50;;;15.67;;
2912;SDS011;1466;48.778;9.166;2023-04-21T02:19:29;49.93;;;14.80;;
2912;SDS011;1466;48.778;9.166;2023-04-21T02:21:55;36.97;;;16.45;;
2912;SDS011;1466;48.778;9.166;2023-04-21T02:24:20;37.70;;;15.50;;
2912;SDS011;1466;48.778;9.166;2023-04-21T02:26:46;35.07;;;14.90;;
2912;SDS011;1466;48.778;9.166;2023-04-21T02:29:12;35.10;;;14.67;;
2912;SDS011;1466;48.778;9.166;2023-04-21T02:31:37;33.13;;;16.23;;
2912;SDS011;1466;48.778;9.166;2023-04-21T02:34:03;29.15;;;14.52;;
2912;SDS011;1466;48.778;9.166;2023-04-21T02:36:29;33.20;;;15.47;;
2912;SDS011;1466;48.778;9.166;2023-04-21T02:38:56;33.72;;;15.35;;
2912;SDS011;1466;48.778;9.166;2023-04-21T02:41:21;34.53;;;15.50;;
2912;SDS011;1466;48.778;9.166;2023-04-21T02:43:47;30.20;;;14.53;;
2912;SDS011;1466;48.778;9.166;2023-04-21T02:46:13;30.05;;;14.90;;
2912;SDS011;1466;48.778;9.166;2023-04-21T02:48:39;37.97;;;16.77;;
2912;SDS011;1466;48.778;9.166;2023-04-21T02:51:09;37.53;;;16.50;;
2912;SDS011;1466;48.778;9.166;2023-04-21T02:53:36;32.45;;;15.85;;
2912;SDS011;1466;48.778;9.166;2023-04-21T02:56:01;32.57;;;16.43;;
2912;SDS011;1466;48.778;9.166;2023-04-21T02:58:28;27.75;;;14.70;;
2912;SDS011;1466;48.778;9.166;2023-04-21T03:00:55;34.03;;;15.48;;
2912;SDS011;1466;48.778;9.166;2023-04-21T03:03:20;40.42;;;17.88;;
2912;SDS011;1466;48.778;9.166;2023-04-21T03:05:46;42.60;;;17.90;;
2912;SDS011;1466;48.778;9.166;2023-04-21T03:08:12;40.90;;;16.03;;
2912;SDS011;1466;48.778;9.166;2023-04-21T03:10:37;45.50;;;19.17;;
2912;SDS011;1466;48.778;9.166;2023-04-21T03:13:03;36.00;;;17.10;;
2912;SDS011;1466;48.778;9.166;2023-04-21T03:15:29;35.00;;;16.20;;
2912;SDS011;1466;48.778;9.166;2023-04-21T03:17:55;57.90;;;20.13;;
2912;SDS011;1466;48.778;9.166;2023-04-21T03:20:21;41.77;;;17.27;;
2912;SDS011;1466;48.778;9.166;2023-04-21T03:22:46;37.77;;;16.90;;
2912;SDS011;1466;48.778;9.166;2023-04-21T03:25:12;37.37;;;16.60;;
2912;SDS011;1466;48.778;9.166;2023-04-21T03:27:38;42.53;;;17.33;;
2912;SDS011;1466;48.778;9.166;2023-04-21T03:30:04;39.03;;;17.37;;
2912;SDS011;1466;48.778;9.166;2023-04-21T03:32:30;31.88;;;16.15;;
2912;SDS011;1466;48.778;9.166;2023-04-21T03:34:56;44.40;;;18.10;;
2912;SDS011;1466;48.778;9.166;2023-04-21T03:37:22;39.00;;;17.57;;
2912;SDS011;1466;48.778;9.166;2023-04-21T03:39:47;34.30;;;16.17;;
2912;SDS011;1466;48.778;9.166;2023-04-21T03:42:13;37.97;;;17.27;;
2912;SDS011;1466;48.778;9.166;2023-04-21T03:44:39;36.83;;;16.60;;
2912;SDS011;1466;48.778;9.166;2023-04-21T03:47:04;37.27;;;17.53;;
2912;SDS011;1466;48.778;9.166;2023-04-21T03:49:32;39.70;;;16.90;;
2912;SDS011;1466;48.778;9.166;2023-04-21T03:51:58;36.70;;;16.60;;
2912;SDS011;1466;48.778;9.166;2023-04-21T03:54:24;43.23;;;16.70;;
2912;SDS011;1466;48.778;9.166;2023-04-21T03:56:49;31.60;;;15.50;;
2912;SDS011;1466;48.778;9.166;2023-04-21T03:59:15;39.23;;;17.70;;
2912;SDS011;1466;48.778;9.166;2023-04-21T04:01:40;41.87;;;16.77;;
2912;SDS011;1466;48.778;9.166;2023-04-21T04:04:07;36.90;;;16.77;;
2912;SDS011;1466;48.778;9.166;2023-04-21T04:06:32;48.63;;;18.90;;
2912;SDS011;1466;48.778;9.166;2023-04-21T04:08:59;36.60;;;17.23;;
2912;SDS011;1466;48.778;9.166;2023-04-21T04:11:28;36.03;;;15.98;;
2912;SDS011;1466;48.778;9.166;2023-04-21T04:13:54;43.40;;;17.67;;
2912;SDS011;1466;48.778;9.166;2023-04-21T04:16:20;35.53;;;16.97;;
2912;SDS011;1466;48.778;9.166;2023-04-21T04:18:45;41.10;;;17.60;;
2912;SDS011;1466;48.778;9.166;2023-04-21T04:21:11;32.60;;;15.87;;
2912;SDS011;1466;48.778;9.166;2023-04-21T04:23:36;44.10;;;18.40;;
2912;SDS011;1466;48.778;9.166;2023-04-21T04:26:02;38.97;;;17.07;;
2912;SDS011;1466;48.778;9.166;2023-04-21T04:28:31;46.53;;;18.40;;
2912;SDS011;1466;48.778;9.166;2023-04-21T04:30:57;40.47;;;17.20;;
2912;SDS011;1466;48.778;9.166;2023-04-21T04:33:24;37.22;;;18.20;;
2912;SDS011;1466;48.778;9.166;2023-04-21T04:35:50;36.73;;;15.40;;
2912;SDS011;1466;48.778;9.166;2023-04-21T04:38:16;39.65;;;17.10;;
2912;SDS011;1466;48.778;9.166;2023-04-21T04:40:42;37.87;;;16.50;;
2912;SDS011;1466;48.778;9.166;2023-04-21T04:43:08;36.23;;;16.73;;
2912;SDS011;1466;48.778;9.166;2023-04-21T04:45:34;41.53;;;17.38;;
2912;SDS011;1466;48.778;9.166;2023-04-21T04:48:01;45.08;;;17.60;;
2912;SDS011;1466;48.778;9.166;2023-04-21T04:50:30;36.25;;;16.80;;
2912;SDS011;1466;48.778;9.166;2023-04-21T04:52:55;42.43;;;17.27;;
2912;SDS011;1466;48.778;9.166;2023-04-21T04:55:21;40.17;;;17.87;;
2912;SDS011;1466;48.778;9.166;2023-04-21T04:57:47;43.40;;;16.87;;
2912;SDS011;1466;48.778;9.166;2023-04-21T05:00:13;41.87;;;17.57;;
2912;SDS011;1466;48.778;9.166;2023-04-21T05:02:39;37.83;;;15.57;;
2912;SDS011;1466;48.778;9.166;2023-04-21T05:05:05;31.08;;;15.85;;
2912;SDS011;1466;48.778;9.166;2023-04-21T05:07:31;40.33;;;16.50;;
2912;SDS011;1466;48.778;9.166;2023-04-21T05:10:00;40.45;;;16.08;;
2912;SDS011;1466;48.778;9.166;2023-04-21T05:12:28;31.70;;;14.48;;
2912;SDS011;1466;48.778;9.166;2023-04-21T05:14:53;37.27;;;15.70;;
2912;SDS011;1466;48.778;9.166;2023-04-21T05:17:19;37.23;;;16.20;;
2912;SDS011;1466;48.778;9.166;2023-04-21T05:19:45;35.73;;;16.93;;
2912;SDS011;1466;48.778;9.166;2023-04-21T05:22:10;44.60;;;16.93;;
2912;SDS011;1466;48.778;9.166;2023-04-21T05:24:36;38.53;;;16.47;;
2912;SDS011;1466;48.778;9.166;2023-04-21T05:27:02;36.30;;;16.90;;
2912;SDS011;1466;48.778;9.166;2023-04-21T05:29:27;39.37;;;16.60;;
2912;SDS011;1466;48.778;9.166;2023-04-21T05:31:53;41.27;;;17.30;;
2912;SDS011;1466;48.778;9.166;2023-04-21T05:34:19;42.80;;;17.53;;
2912;SDS011;1466;48.778;9.166;2023-04-21T05:36:44;28.40;;;14.20;;
2912;SDS011;1466;48.778;9.166;2023-04-21T05:39:11;36.03;;;16.85;;
2912;SDS011;1466;48.778;9.166;2023-04-21T05:41:36;39.27;;;17.00;;
2912;SDS011;1466;48.778;9.166;2023-04-21T05:44:02;50.67;;;18.10;;
2912;SDS011;1466;48.778;9.166;2023-04-21T05:46:28;53.60;;;18.17;;
2912;SDS011;1466;48.778;9.166;2023-04-21T05:48:54;46.13;;;18.65;;
2912;SDS011;1466;48.778;9.166;2023-04-21T05:51:19;42.50;;;19.20;;
2912;SDS011;1466;48.778;9.166;2023-04-21T05:53:45;33.50;;;17.00;;
2912;SDS011;1466;48.778;9.166;2023-04-21T05:56:11;38.17;;;17.80;;
2912;SDS011;1466;48.778;9.166;2023-04-21T05:58:37;38.60;;;18.08;;
2912;SDS011;1466;48.778;9.166;2023-04-21T06:01:03;52.67;;;20.10;;
2912;SDS011;1466;48.778;9.166;2023-04-21T06:03:30;39.53;;;17.33;;
2912;SDS011;1466;48.778;9.166;2023-04-21T06:05:56;47.28;;;19.83;;
2912;SDS011;1466;48.778;9.166;2023-04-21T06:08:23;50.28;;;18.98;;
2912;SDS011;1466;48.778;9.166;2023-04-21T06:10:48;44.03;;;19.17;;
2912;SDS011;1466;48.778;9.166;2023-04-21T06:13:14;40.07;;;17.20;;
2912;SDS011;1466;48.778;9.166;2023-04-21T06:15:40;39.47;;;18.80;;
2912;SDS011;1466;48.778;9.166;2023-04-21T06:18:05;42.37;;;18.40;;
2912;SDS011;1466;48.778;9.166;2023-04-21T06:20:31;47.93;;;18.83;;
2912;SDS011;1466;48.778;9.166;2023-04-21T06:22:57;43.90;;;18.07;;
2912;SDS011;1466;48.778;9.166;2023-04-21T06:25:22;43.90;;;18.53;;
2912;SDS011;1466;48.778;9.166;2023-04-21T06:27:48;41.70;;;18.80;;
2912;SDS011;1466;48.778;9.166;2023-04-21T06:30:13;45.10;;;19.30;;
2912;SDS011;1466;48.778;9.166;2023-04-21T06:32:39;42.80;;;17.60;;
2912;SDS011;1466;48.778;9.166;2023-04-21T06:35:05;42.73;;;19.33;;
2912;SDS011;1466;48.778;9.166;2023-04-21T06:37:31;35.58;;;18.65;;
2912;SDS011;1466;48.778;9.166;2023-04-21T06:39:57;48.87;;;18.47;;
2912;SDS011;1466;48.778;9.166;2023-04-21T06:42:23;34.73;;;17.03;;
2912;SDS011;1466;48.778;9.166;2023-04-21T06:44:49;44.73;;;19.70;;
2912;SDS011;1466;48.778;9.166;2023-04-21T06:47:14;39.87;;;20.40;;
2912;SDS011;1466;48.778;9.166;2023-04-21T06:49:40;46.50;;;20.70;;
2912;SDS011;1466;48.778;9.166;2023-04-21T06:52:06;43.37;;;18.87;;
2912;SDS011;1466;48.778;9.166;2023-04-21T06:54:32;50.58;;;19.00;;
2912;SDS011;1466;48.778;9.166;2023-04-21T06:56:58;46.03;;;20.20;;
2912;SDS011;1466;48.778;9.166;2023-04-21T06:59:23;50.43;;;19.63;;
2912;SDS011;1466;48.778;9.166;2023-04-21T07:01:49;40.00;;;17.83;;
2912;SDS011;1466;48.778;9.166;2023-04-21T07:04:16;42.28;;;18.00;;
2912;SDS011;1466;48.778;9.166;2023-04-21T07:06:43;33.13;;;16.25;;
2912;SDS011;1466;48.778;9.166;2023-04-21T07:09:08;42.07;;;18.43;;
2912;SDS011;1466;48.778;9.166;2023-04-21T07:11:34;41.07;;;19.70;;
2912;SDS011;1466;48.778;9.166;2023-04-21T07:13:59;41.60;;;18.20;;
2912;SDS011;1466;48.778;9.166;2023-04-21T07:16:26;42.50;;;16.90;;
2912;SDS011;1466;48.778;9.166;2023-04-21T07:18:52;36.97;;;18.13;;
2912;SDS011;1466;48.778;9.166;2023-04-21T07:21:18;35.57;;;17.97;;
2912;SDS011;1466;48.778;9.166;2023-04-21T07:23:44;44.07;;;18.60;;
2912;SDS011;1466;48.778;9.166;2023-04-21T07:26:09;41.67;;;18.07;;
2912;SDS011;1466;48.778;9.166;2023-04-21T07:28:36;43.40;;;20.10;;
2912;SDS011;1466;48.778;9.166;2023-04-21T07:31:02;45.88;;;20.42;;
2912;SDS011;1466;48.778;9.166;2023-04-21T07:33:27;31.50;;;17.30;;
2912;SDS011;1466;48.778;9.166;2023-04-21T07:35:53;42.93;;;18.67;;
2912;SDS011;1466;48.778;9.166;2023-04-21T07:38:18;45.57;;;20.37;;
2912;SDS011;1466;48.778;9.166;2023-04-21T07:40:44;34.20;;;16.80;;
2912;SDS011;1466;48.778;9.166;2023-04-21T07:43:10;41.80;;;17.33;;
2912;SDS011;1466;48.778;9.166;2023-04-21T07:45:35;36.07;;;16.90;;
2912;SDS011;1466;48.778;9.166;2023-04-21T07:48:01;40.40;;;17.20;;
2912;SDS011;1466;48.778;9.166;2023-04-21T07:50:27;34.93;;;15.63;;
2912;SDS011;1466;48.778;9.166;2023-04-21T07:52:52;31.50;;;13.90;;
2912;SDS011;1466;48.778;9.166;2023-04-21T07:55:18;36.03;;;15.30;;
2912;SDS011;1466;48.778;9.166;2023-04-21T07:57:44;40.83;;;17.30;;
2912;SDS011;1466;48.778;9.166;2023-04-21T08:00:09;33.30;;;16.87;;
2912;SDS011;1466;48.778;9.166;2023-04-21T08:02:36;32.83;;;15.32;;
2912;SDS011;1466;48.778;9.166;2023-04-21T08:05:01;28.50;;;14.43;;
2912;SDS011;1466;48.778;9.166;2023-04-21T08:07:27;37.23;;;15.97;;
2912;SDS011;1466;48.778;9.166;2023-04-21T08:09:52;38.13;;;14.77;;
2912;SDS011;1466;48.778;9.166;2023-04-21T08:12:18;41.87;;;16.73;;
2912;SDS011;1466;48.778;9.166;2023-04-21T08:14:44;39.63;;;16.20;;
2912;SDS011;1466;48.778;9.166;2023-04-21T08:17:09;40.77;;;16.60;;
2912;SDS011;1466;48.778;9.166;2023-04-21T08:19:35;33.90;;;14.77;;
2912;SDS011;1466;48.778;9.166;2023-04-21T08:22:01;32.70;;;16.40;;
2912;SDS011;1466;48.778;9.166;2023-04-21T08:24:27;32.28;;;14.38;;
2912;SDS011;1466;48.778;9.166;2023-04-21T08:26:52;95.23;;;23.67;;
2912;SDS011;1466;48.778;9.166;2023-04-21T08:29:18;39.87;;;16.70;;
2912;SDS011;1466;48.778;9.166;2023-04-21T08:31:43;42.37;;;15.90;;
2912;SDS011;1466;48.778;9.166;2023-04-21T08:34:09;39.10;;;14.23;;
2912;SDS011;1466;48.778;9.166;2023-04-21T08:36:35;25.60;;;12.43;;
2912;SDS011;1466;48.778;9.166;2023-04-21T08:39:00;32.37;;;14.73;;
2912;SDS011;1466;48.778;9.166;2023-04-21T08:41:26;31.70;;;13.73;;
2912;SDS011;1466;48.778;9.166;2023-04-21T08:43:52;30.37;;;11.07;;
2912;SDS011;1466;48.778;9.166;2023-04-21T08:46:18;47.27;;;16.80;;
2912;SDS011;1466;48.778;9.166;2023-04-21T08:48:45;31.33;;;13.70;;
2912;SDS011;1466;48.778;9.166;2023-04-21T08:51:11;33.38;;;13.68;;
2912;SDS011;1466;48.778;9.166;2023-04-21T08:53:44;35.85;;;12.07;;
2912;SDS011;1466;48.778;9.166;2023-04-21T08:56:10;35.87;;;13.53;;
2912;SDS011;1466;48.778;9.166;2023-04-21T08:58:36;35.80;;;12.30;;
2912;SDS011;1466;48.778;9.166;2023-04-21T09:01:01;33.93;;;14.50;;
2912;SDS011;1466;48.778;9.166;2023-04-21T09:03:27;37.47;;;13.73;;
2912;SDS011;1466;48.778;9.166;2023-04-21T09:05:58;20.67;;;11.93;;
2912;SDS011;1466;48.778;9.166;2023-04-21T09:08:29;28.83;;;13.57;;
2912;SDS011;1466;48.778;9.166;2023-04-21T09:10:56;44.05;;;17.15;;
2912;SDS011;1466;48.778;9.166;2023-04-21T09:13:28;26.60;;;13.07;;
2912;SDS011;1466;48.778;9.166;2023-04-21T09:15:54;30.05;;;13.45;;
2912;SDS011;1466;48.778;9.166;2023-04-21T09:18:21;35.73;;;13.90;;
2912;SDS011;1466;48.778;9.166;2023-04-21T09:20:53;37.92;;;14.13;;
2912;SDS011;1466;48.778;9.166;2023-04-21T09:23:42;39.97;;;13.80;;
2912;SDS011;1466;48.778;9.166;2023-04-21T09:26:10;30.42;;;12.40;;
2912;SDS011;1466;48.778;9.166;2023-04-21T09:28:39;28.98;;;13.02;;
2912;SDS011;1466;48.778;9.166;2023-04-21T09:31:11;27.85;;;14.15;;
2912;SDS011;1466;48.778;9.166;2023-04-21T09:33:53;28.05;;;13.10;;
2912;SDS011;1466;48.778;9.166;2023-04-21T09:36:21;24.05;;;11.95;;
2912;SDS011;1466;48.778;9.166;2023-04-21T09:41:23;21.45;;;11.55;;
2912;SDS011;1466;48.778;9.166;2023-04-21T09:43:49;31.80;;;12.97;;
2912;SDS011;1466;48.778;9.166;2023-04-21T09:46:16;26.80;;;12.23;;
2912;SDS011;1466;48.778;9.166;2023-04-21T09:48:43;43.67;;;15.10;;
2912;SDS011;1466;48.778;9.166;2023-04-21T09:51:13;24.35;;;10.65;;
2912;SDS011;1466;48.778;9.166;2023-04-21T09:53:40;26.75;;;11.43;;
2912;SDS011;1466;48.778;9.166;2023-04-21T09:56:09;21.83;;;11.18;;
2912;SDS011;1466;48.778;9.166;2023-04-21T09:58:40;22.90;;;10.40;;
2912;SDS011;1466;48.778;9.166;2023-04-21T10:01:12;25.60;;;11.10;;
2912;SDS011;1466;48.778;9.166;2023-04-21T10:03:39;29.55;;;13.05;;
2912;SDS011;1466;48.778;9.166;2023-04-21T10:06:05;28.33;;;11.93;;
2912;SDS011;1466;48.778;9.166;2023-04-21T10:08:32;38.80;;;13.88;;
2912;SDS011;1466;48.778;9.166;2023-04-21T10:10:59;27.30;;;11.40;;
2912;SDS011;1466;48.778;9.166;2023-04-21T10:13:25;26.10;;;11.13;;
2912;SDS011;1466;48.778;9.166;2023-04-21T10:16:01;18.00;;;8.68;;
2912;SDS011;1466;48.778;9.166;2023-04-21T10:18:35;25.23;;;10.10;;
2912;SDS011;1466;48.778;9.166;2023-04-21T10:21:08;20.42;;;9.18;;
2912;SDS011;1466;48.778;9.166;2023-04-21T10:23:43;19.73;;;9.10;;
2912;SDS011;1466;48.778;9.166;2023-04-21T10:26:16;26.13;;;11.85;;
2912;SDS011;1466;48.778;9.166;2023-04-21T10:28:52;28.10;;;10.43;;
2912;SDS011;1466;48.778;9.166;2023-04-21T10:31:28;21.40;;;9.82;;
2912;SDS011;1466;48.778;9.166;2023-04-21T10:34:11;28.17;;;9.60;;
2912;SDS011;1466;48.778;9.166;2023-04-21T10:39:31;25.58;;;12.05;;
2912;SDS011;1466;48.778;9.166;2023-04-21T10:47:23;24.75;;;10.75;;
2912;SDS011;1466;48.778;9.166;2023-04-21T10:49:52;23.90;;;10.77;;
2912;SDS011;1466;48.778;9.166;2023-04-21T10:52:30;23.27;;;10.38;;
2912;SDS011;1466;48.778;9.166;2023-04-21T10:57:22;21.80;;;10.80;;
2912;SDS011;1466;48.778;9.166;2023-04-21T10:59:48;25.03;;;12.03;;
2912;SDS011;1466;48.778;9.166;2023-04-21T11:02:15;21.58;;;10.23;;
2912;SDS011;1466;48.778;9.166;2023-04-21T11:04:41;25.92;;;10.90;;
2912;SDS011;1466;48.778;9.166;2023-04-21T11:07:14;23.52;;;10.98;;
2912;SDS011;1466;48.778;9.166;2023-04-21T11:09:47;24.63;;;11.93;;
2912;SDS011;1466;48.778;9.166;2023-04-21T11:12:20;34.88;;;13.40;;
2912;SDS011;1466;48.778;9.166;2023-04-21T11:14:46;25.93;;;11.13;;
2912;SDS011;1466;48.778;9.166;2023-04-21T11:17:13;20.67;;;10.67;;
2912;SDS011;1466;48.778;9.166;2023-04-21T11:19:40;35.17;;;13.27;;
2912;SDS011;1466;48.778;9.166;2023-04-21T11:22:09;20.30;;;10.38;;
2912;SDS011;1466;48.778;9.166;2023-04-21T11:24:34;14.33;;;7.00;;
2912;SDS011;1466;48.778;9.166;2023-04-21T11:27:00;23.67;;;9.33;;
2912;SDS011;1466;48.778;9.166;2023-04-21T11:29:26;22.37;;;9.57;;
2912;SDS011;1466;48.778;9.166;2023-04-21T11:31:53;22.42;;;10.98;;
2912;SDS011;1466;48.778;9.166;2023-04-21T11:34:19;18.70;;;9.10;;
2912;SDS011;1466;48.778;9.166;2023-04-21T11:36:46;19.13;;;8.73;;
2912;SDS011;1466;48.778;9.166;2023-04-21T11:39:13;21.00;;;9.27;;
2912;SDS011;1466;48.778;9.166;2023-04-21T11:41:44;23.27;;;10.60;;
2912;SDS011;1466;48.778;9.166;2023-04-21T11:44:10;19.15;;;9.98;;
2912;SDS011;1466;48.778;9.166;2023-04-21T11:46:43;20.55;;;9.43;;
2912;SDS011;1466;48.778;9.166;2023-04-21T11:49:10;24.85;;;9.57;;
2912;SDS011;1466;48.778;9.166;2023-04-21T11:51:37;14.38;;;8.50;;
2912;SDS011;1466;48.778;9.166;2023-04-21T11:54:07;18.38;;;9.18;;
2912;SDS011;1466;48.778;9.166;2023-04-21T11:56:35;27.45;;;10.60;;
2912;SDS011;1466;48.778;9.166;2023-04-21T11:59:08;22.20;;;9.80;;
2912;SDS011;1466;48.778;9.166;2023-04-21T12:01:42;22.92;;;10.52;;
2912;SDS011;1466;48.778;9.166;2023-04-21T12:04:12;21.60;;;10.35;;
2912;SDS011;1466;48.778;9.166;2023-04-21T12:06:43;20.35;;;9.23;;
2912;SDS011;1466;48.778;9.166;2023-04-21T12:09:15;15.90;;;8.20;;
2912;SDS011;1466;48.778;9.166;2023-04-21T12:11:42;21.52;;;9.85;;
2912;SDS011;1466;48.778;9.166;2023-04-21T12:14:13;23.45;;;10.23;;
2912;SDS011;1466;48.778;9.166;2023-04-21T12:16:40;18.65;;;9.57;;
2912;SDS011;1466;48.778;9.166;2023-04-21T12:19:05;18.30;;;9.50;;
2912;SDS011;1466;48.778;9.166;2023-04-21T12:21:31;17.53;;;9.70;;
2912;SDS011;1466;48.778;9.166;2023-04-21T12:23:56;25.60;;;10.23;;
2912;SDS011;1466;48.778;9.166;2023-04-21T12:26:22;17.87;;;8.60;;
2912;SDS011;1466;48.778;9.166;2023-04-21T12:28:51;29.67;;;10.33;;
2912;SDS011;1466;48.778;9.166;2023-04-21T12:31:17;19.73;;;9.63;;
2912;SDS011;1466;48.778;9.166;2023-04-21T12:33:43;22.15;;;10.35;;
2912;SDS011;1466;48.778;9.166;2023-04-21T12:36:09;28.98;;;10.43;;
2912;SDS011;1466;48.778;9.166;2023-04-21T12:38:35;23.23;;;9.63;;
2912;SDS011;1466;48.778;9.166;2023-04-21T12:41:01;27.07;;;10.20;;
2912;SDS011;1466;48.778;9.166;2023-04-21T12:43:26;20.13;;;8.80;;
2912;SDS011;1466;48.778;9.166;2023-04-21T12:45:52;19.50;;;9.03;;
2912;SDS011;1466;48.778;9.166;2023-04-21T12:48:18;26.20;;;10.00;;
2912;SDS011;1466;48.778;9.166;2023-04-21T12:50:46;17.85;;;7.78;;
2912;SDS011;1466;48.778;9.166;2023-04-21T12:53:12;21.03;;;8.77;;
2912;SDS011;1466;48.778;9.166;2023-04-21T12:55:38;18.70;;;8.67;;
2912;SDS011;1466;48.778;9.166;2023-04-21T12:58:03;30.17;;;10.57;;
2912;SDS011;1466;48.778;9.166;2023-04-21T13:00:29;21.70;;;9.20;;
2912;SDS011;1466;48.778;9.166;2023-04-21T13:02:55;23.00;;;9.20;;
2912;SDS011;1466;48.778;9.166;2023-04-21T13:05:21;21.13;;;9.80;;
2912;SDS011;1466;48.778;9.166;2023-04-21T13:07:46;31.53;;;10.97;;
2912;SDS011;1466;48.778;9.166;2023-04-21T13:10:12;17.90;;;8.53;;
2912;SDS011;1466;48.778;9.166;2023-04-21T13:12:38;20.57;;;8.17;;
2912;SDS011;1466;48.778;9.166;2023-04-21T13:15:03;19.60;;;8.90;;
2912;SDS011;1466;48.778;9.166;2023-04-21T13:17:29;31.73;;;10.70;;
2912;SDS011;1466;48.778;9.166;2023-04-21T13:19:56;17.60;;;8.32;;
2912;SDS011;1466;48.778;9.166;2023-04-21T13:22:22;17.83;;;6.90;;
2912;SDS011;1466;48.778;9.166;2023-04-21T13:24:47;18.87;;;8.07;;
2912;SDS011;1466;48.778;9.166;2023-04-21T13:27:13;22.20;;;8.23;;
2912;SDS011;1466;48.778;9.166;2023-04-21T13:29:38;18.27;;;8.13;;
2912;SDS011;1466;48.778;9.166;2023-04-21T13:32:05;25.17;;;9.40;;
2912;SDS011;1466;48.778;9.166;2023-04-21T13:34:32;17.60;;;8.37;;
2912;SDS011;1466;48.778;9.166;2023-04-21T13:36:58;13.25;;;7.13;;
2912;SDS011;1466;48.778;9.166;2023-04-21T13:39:25;23.10;;;8.00;;
2912;SDS011;1466;48.778;9.166;2023-04-21T13:41:51;16.93;;;8.80;;
2912;SDS011;1466;48.778;9.166;2023-04-21T13:44:17;13.77;;;7.23;;
2912;SDS011;1466;48.778;9.166;2023-04-21T13:46:43;24.90;;;8.97;;
2912;SDS011;1466;48.778;9.166;2023-04-21T13:49:09;15.37;;;7.17;;
2912;SDS011;1466;48.778;9.166;2023-04-21T13:51:35;15.55;;;7.45;;
2912;SDS011;1466;48.778;9.166;2023-04-21T13:54:01;15.80;;;7.40;;
2912;SDS011;1466;48.778;9.166;2023-04-21T13:56:26;21.20;;;8.67;;
2912;SDS011;1466;48.778;9.166;2023-04-21T13:58:52;16.43;;;7.87;;
2912;SDS011;1466;48.778;9.166;2023-04-21T14:01:19;15.38;;;7.50;;
2912;SDS011;1466;48.778;9.166;2023-04-21T14:03:44;13.20;;;7.10;;
2912;SDS011;1466;48.778;9.166;2023-04-21T14:06:10;15.00;;;7.60;;
2912;SDS011;1466;48.778;9.166;2023-04-21T14:08:36;13.83;;;7.20;;
2912;SDS011;1466;48.778;9.166;2023-04-21T14:11:02;18.90;;;8.57;;
2912;SDS011;1466;48.778;9.166;2023-04-21T14:13:28;20.63;;;7.93;;
2912;SDS011;1466;48.778;9.166;2023-04-21T14:15:55;18.40;;;7.43;;
2912;SDS011;1466;48.778;9.166;2023-04-21T14:18:20;17.57;;;7.80;;
2912;SDS011;1466;48.778;9.166;2023-04-21T14:20:47;33.07;;;10.43;;
2912;SDS011;1466;48.778;9.166;2023-04-21T14:23:13;15.30;;;7.27;;
2912;SDS011;1466;48.778;9.166;2023-04-21T14:25:39;18.47;;;7.37;;
2912;SDS011;1466;48.778;9.166;2023-04-21T14:28:04;18.23;;;7.27;;
2912;SDS011;1466;48.778;9.166;2023-04-21T14:30:32;20.17;;;7.87;;
2912;SDS011;1466;48.778;9.166;2023-04-21T14:33:00;17.77;;;7.50;;
2912;SDS011;1466;48.778;9.166;2023-04-21T14:35:26;16.17;;;7.20;;
2912;SDS011;1466;48.778;9.166;2023-04-21T14:37:51;21.57;;;8.23;;
2912;SDS011;1466;48.778;9.166;2023-04-21T14:40:17;15.10;;;6.97;;
2912;SDS011;1466;48.778;9.166;2023-04-21T14:42:43;17.70;;;7.40;;
2912;SDS011;1466;48.778;9.166;2023-04-21T14:45:09;14.80;;;6.80;;
2912;SDS011;1466;48.778;9.166;2023-04-21T14:47:35;15.73;;;7.07;;
2912;SDS011;1466;48.778;9.166;2023-04-21T14:50:02;13.07;;;6.30;;
2912;SDS011;1466;48.778;9.166;2023-04-21T14:52:28;12.17;;;5.83;;
2912;SDS011;1466;48.778;9.166;2023-04-21T14:54:53;13.03;;;6.00;;
2912;SDS011;1466;48.778;9.166;2023-04-21T14:57:19;15.60;;;6.57;;
2912;SDS011;1466;48.778;9.166;2023-04-21T14:59:46;21.33;;;7.73;;